sensor_id;sensor_type;location;lat;lon;timestamp;P1;durP1;ratioP1;P2;durP2;ratioP2
55483;SDS011;41345;51.704;5.146;2022-08-19T00:04:50;21.40;;;14.52;;
55483;SDS011;41345;51.704;5.146;2022-08-19T00:09:52;21.77;;;13.02;;
55483;SDS011;41345;51.704;5.146;2022-08-19T00:14:53;19.63;;;10.27;;
55483;SDS011;41345;51.704;5.146;2022-08-19T00:19:54;20.40;;;12.30;;
55483;SDS011;41345;51.704;5.146;2022-08-19T00:24:54;15.43;;;10.07;;
55483;SDS011;41345;51.704;5.146;2022-08-19T00:29:54;20.85;;;14.40;;
55483;SDS011;41345;51.704;5.146;2022-08-19T00:34:54;18.92;;;13.90;;
55483;SDS011;41345;51.704;5.146;2022-08-19T00:39:55;21.10;;;14.10;;
55483;SDS011;41345;51.704;5.146;2022-08-19T00:44:55;35.60;;;23.00;;
55483;SDS011;41345;51.704;5.146;2022-08-19T00:49:56;23.13;;;16.77;;
55483;SDS011;41345;51.704;5.146;2022-08-19T00:54:57;19.15;;;14.07;;
55483;SDS011;41345;51.704;5.146;2022-08-19T00:59:59;21.13;;;15.00;;
55483;SDS011;41345;51.704;5.146;2022-08-19T01:05:01;20.50;;;11.20;;
55483;SDS011;41345;51.704;5.146;2022-08-19T01:10:02;9.10;;;6.00;;
55483;SDS011;41345;51.704;5.146;2022-08-19T01:15:03;13.15;;;8.32;;
55483;SDS011;41345;51.704;5.146;2022-08-19T01:20:04;16.83;;;12.07;;
55483;SDS011;41345;51.704;5.146;2022-08-19T01:25:07;16.85;;;10.40;;
55483;SDS011;41345;51.704;5.146;2022-08-19T01:30:08;28.57;;;20.40;;
55483;SDS011;41345;51.704;5.146;2022-08-19T01:35:09;27.45;;;19.70;;
55483;SDS011;41345;51.704;5.146;2022-08-19T01:40:09;23.65;;;17.92;;
55483;SDS011;41345;51.704;5.146;2022-08-19T01:45:10;9.25;;;6.07;;
55483;SDS011;41345;51.704;5.146;2022-08-19T01:50:11;12.45;;;8.82;;
55483;SDS011;41345;51.704;5.146;2022-08-19T01:55:13;15.10;;;8.75;;
55483;SDS011;41345;51.704;5.146;2022-08-19T02:00:15;13.65;;;9.27;;
55483;SDS011;41345;51.704;5.146;2022-08-19T02:05:15;11.45;;;7.93;;
55483;SDS011;41345;51.704;5.146;2022-08-19T02:10:19;10.05;;;6.63;;
55483;SDS011;41345;51.704;5.146;2022-08-19T02:15:20;23.92;;;17.15;;
55483;SDS011;41345;51.704;5.146;2022-08-19T02:20:20;34.28;;;24.98;;
55483;SDS011;41345;51.704;5.146;2022-08-19T02:25:20;42.10;;;30.58;;
55483;SDS011;41345;51.704;5.146;2022-08-19T02:30:21;46.65;;;32.03;;
55483;SDS011;41345;51.704;5.146;2022-08-19T02:35:21;50.95;;;33.47;;
55483;SDS011;41345;51.704;5.146;2022-08-19T02:40:21;41.90;;;27.83;;
55483;SDS011;41345;51.704;5.146;2022-08-19T02:45:22;28.35;;;19.85;;
55483;SDS011;41345;51.704;5.146;2022-08-19T02:50:22;35.72;;;23.02;;
55483;SDS011;41345;51.704;5.146;2022-08-19T02:55:23;32.83;;;20.85;;
55483;SDS011;41345;51.704;5.146;2022-08-19T03:00:23;30.93;;;20.47;;
55483;SDS011;41345;51.704;5.146;2022-08-19T03:05:24;24.67;;;19.10;;
55483;SDS011;41345;51.704;5.146;2022-08-19T03:10:24;35.50;;;23.60;;
55483;SDS011;41345;51.704;5.146;2022-08-19T03:15:25;25.92;;;18.98;;
55483;SDS011;41345;51.704;5.146;2022-08-19T03:20:26;25.40;;;16.77;;
55483;SDS011;41345;51.704;5.146;2022-08-19T03:25:26;21.30;;;15.73;;
55483;SDS011;41345;51.704;5.146;2022-08-19T03:30:26;40.53;;;28.08;;
55483;SDS011;41345;51.704;5.146;2022-08-19T03:35:27;44.15;;;26.45;;
55483;SDS011;41345;51.704;5.146;2022-08-19T03:40:27;39.60;;;26.25;;
55483;SDS011;41345;51.704;5.146;2022-08-19T03:45:29;42.75;;;27.42;;
55483;SDS011;41345;51.704;5.146;2022-08-19T03:50:30;41.70;;;24.83;;
55483;SDS011;41345;51.704;5.146;2022-08-19T03:55:30;38.33;;;25.02;;
55483;SDS011;41345;51.704;5.146;2022-08-19T04:00:30;25.08;;;18.08;;
55483;SDS011;41345;51.704;5.146;2022-08-19T04:05:30;37.50;;;23.70;;
55483;SDS011;41345;51.704;5.146;2022-08-19T04:10:37;48.92;;;28.85;;
55483;SDS011;41345;51.704;5.146;2022-08-19T04:15:39;86.38;;;41.45;;
55483;SDS011;41345;51.704;5.146;2022-08-19T04:20:46;92.18;;;44.70;;
55483;SDS011;41345;51.704;5.146;2022-08-19T04:25:46;99.32;;;46.78;;
55483;SDS011;41345;51.704;5.146;2022-08-19T04:30:48;101.63;;;47.20;;
55483;SDS011;41345;51.704;5.146;2022-08-19T04:35:49;92.38;;;47.15;;
55483;SDS011;41345;51.704;5.146;2022-08-19T04:40:51;90.28;;;46.53;;
55483;SDS011;41345;51.704;5.146;2022-08-19T04:46:10;86.35;;;44.28;;
55483;SDS011;41345;51.704;5.146;2022-08-19T04:51:12;77.43;;;42.60;;
55483;SDS011;41345;51.704;5.146;2022-08-19T04:56:14;86.40;;;44.95;;
55483;SDS011;41345;51.704;5.146;2022-08-19T05:01:17;79.25;;;44.33;;
55483;SDS011;41345;51.704;5.146;2022-08-19T05:06:20;80.00;;;44.27;;
55483;SDS011;41345;51.704;5.146;2022-08-19T05:11:22;77.55;;;42.10;;
55483;SDS011;41345;51.704;5.146;2022-08-19T05:16:23;72.38;;;39.05;;
55483;SDS011;41345;51.704;5.146;2022-08-19T05:21:24;77.28;;;41.53;;
55483;SDS011;41345;51.704;5.146;2022-08-19T05:26:45;74.72;;;41.22;;
55483;SDS011;41345;51.704;5.146;2022-08-19T05:31:46;78.30;;;42.30;;
55483;SDS011;41345;51.704;5.146;2022-08-19T05:36:49;79.55;;;42.97;;
55483;SDS011;41345;51.704;5.146;2022-08-19T05:41:51;75.82;;;41.53;;
55483;SDS011;41345;51.704;5.146;2022-08-19T05:46:52;73.40;;;41.22;;
55483;SDS011;41345;51.704;5.146;2022-08-19T05:51:53;63.67;;;37.42;;
55483;SDS011;41345;51.704;5.146;2022-08-19T05:56:55;70.75;;;39.33;;
55483;SDS011;41345;51.704;5.146;2022-08-19T06:01:55;67.18;;;39.50;;
55483;SDS011;41345;51.704;5.146;2022-08-19T06:06:56;81.22;;;41.88;;
55483;SDS011;41345;51.704;5.146;2022-08-19T06:11:58;74.90;;;40.25;;
55483;SDS011;41345;51.704;5.146;2022-08-19T06:17:00;80.80;;;40.40;;
55483;SDS011;41345;51.704;5.146;2022-08-19T06:22:02;93.43;;;41.42;;
55483;SDS011;41345;51.704;5.146;2022-08-19T06:27:03;79.90;;;39.03;;
55483;SDS011;41345;51.704;5.146;2022-08-19T06:32:05;82.10;;;38.03;;
55483;SDS011;41345;51.704;5.146;2022-08-19T06:37:06;88.40;;;39.05;;
55483;SDS011;41345;51.704;5.146;2022-08-19T06:42:06;75.55;;;38.25;;
55483;SDS011;41345;51.704;5.146;2022-08-19T06:47:10;90.75;;;40.75;;
55483;SDS011;41345;51.704;5.146;2022-08-19T06:52:10;90.25;;;39.30;;
55483;SDS011;41345;51.704;5.146;2022-08-19T06:57:14;77.22;;;37.33;;
55483;SDS011;41345;51.704;5.146;2022-08-19T07:02:15;72.50;;;34.15;;
55483;SDS011;41345;51.704;5.146;2022-08-19T07:07:15;85.97;;;38.13;;
55483;SDS011;41345;51.704;5.146;2022-08-19T07:12:15;89.05;;;39.70;;
55483;SDS011;41345;51.704;5.146;2022-08-19T07:17:16;79.55;;;39.55;;
55483;SDS011;41345;51.704;5.146;2022-08-19T07:22:16;85.43;;;38.50;;
55483;SDS011;41345;51.704;5.146;2022-08-19T07:27:17;80.07;;;37.78;;
55483;SDS011;41345;51.704;5.146;2022-08-19T07:32:18;85.28;;;40.65;;
55483;SDS011;41345;51.704;5.146;2022-08-19T07:37:20;72.50;;;38.83;;
55483;SDS011;41345;51.704;5.146;2022-08-19T07:42:21;71.95;;;37.60;;
55483;SDS011;41345;51.704;5.146;2022-08-19T07:47:21;79.40;;;39.83;;
55483;SDS011;41345;51.704;5.146;2022-08-19T07:52:22;72.78;;;38.95;;
55483;SDS011;41345;51.704;5.146;2022-08-19T07:57:22;76.07;;;39.78;;
55483;SDS011;41345;51.704;5.146;2022-08-19T08:02:23;84.85;;;40.42;;
55483;SDS011;41345;51.704;5.146;2022-08-19T08:07:23;85.90;;;42.15;;
55483;SDS011;41345;51.704;5.146;2022-08-19T08:12:42;76.05;;;41.95;;
55483;SDS011;41345;51.704;5.146;2022-08-19T08:17:43;78.82;;;41.10;;
55483;SDS011;41345;51.704;5.146;2022-08-19T08:22:44;72.13;;;39.30;;
55483;SDS011;41345;51.704;5.146;2022-08-19T08:28:04;79.45;;;42.95;;
55483;SDS011;41345;51.704;5.146;2022-08-19T08:33:04;71.95;;;40.25;;
55483;SDS011;41345;51.704;5.146;2022-08-19T08:38:05;72.10;;;42.03;;
55483;SDS011;41345;51.704;5.146;2022-08-19T08:43:07;71.70;;;40.78;;
55483;SDS011;41345;51.704;5.146;2022-08-19T08:48:18;75.75;;;40.70;;
55483;SDS011;41345;51.704;5.146;2022-08-19T08:53:20;62.05;;;39.90;;
55483;SDS011;41345;51.704;5.146;2022-08-19T08:58:25;72.35;;;41.20;;
55483;SDS011;41345;51.704;5.146;2022-08-19T09:03:28;64.28;;;36.83;;
55483;SDS011;41345;51.704;5.146;2022-08-19T09:23:41;58.95;;;34.65;;
55483;SDS011;41345;51.704;5.146;2022-08-19T09:28:44;50.25;;;32.30;;
55483;SDS011;41345;51.704;5.146;2022-08-19T09:33:45;47.10;;;30.23;;
55483;SDS011;41345;51.704;5.146;2022-08-19T09:38:46;49.67;;;27.27;;
55483;SDS011;41345;51.704;5.146;2022-08-19T09:43:47;41.97;;;28.55;;
55483;SDS011;41345;51.704;5.146;2022-08-19T09:48:48;50.08;;;29.30;;
55483;SDS011;41345;51.704;5.146;2022-08-19T09:53:50;39.00;;;26.77;;
55483;SDS011;41345;51.704;5.146;2022-08-19T09:58:51;38.25;;;25.15;;
55483;SDS011;41345;51.704;5.146;2022-08-19T10:03:52;39.97;;;24.42;;
55483;SDS011;41345;51.704;5.146;2022-08-19T10:08:53;35.30;;;24.02;;
55483;SDS011;41345;51.704;5.146;2022-08-19T10:13:54;37.25;;;25.80;;
55483;SDS011;41345;51.704;5.146;2022-08-19T10:18:54;37.35;;;24.38;;
55483;SDS011;41345;51.704;5.146;2022-08-19T10:23:56;42.13;;;28.33;;
55483;SDS011;41345;51.704;5.146;2022-08-19T10:28:57;40.15;;;28.33;;
55483;SDS011;41345;51.704;5.146;2022-08-19T10:33:58;37.70;;;26.30;;
55483;SDS011;41345;51.704;5.146;2022-08-19T10:39:00;30.70;;;21.85;;
55483;SDS011;41345;51.704;5.146;2022-08-19T10:44:03;36.30;;;24.08;;
55483;SDS011;41345;51.704;5.146;2022-08-19T10:49:05;28.20;;;19.20;;
55483;SDS011;41345;51.704;5.146;2022-08-19T10:54:05;24.02;;;18.85;;
55483;SDS011;41345;51.704;5.146;2022-08-19T10:59:06;24.00;;;17.83;;
55483;SDS011;41345;51.704;5.146;2022-08-19T11:04:06;24.03;;;17.07;;
55483;SDS011;41345;51.704;5.146;2022-08-19T11:09:09;24.08;;;17.00;;
55483;SDS011;41345;51.704;5.146;2022-08-19T11:14:12;22.77;;;16.83;;
55483;SDS011;41345;51.704;5.146;2022-08-19T11:19:13;23.40;;;14.82;;
55483;SDS011;41345;51.704;5.146;2022-08-19T11:24:22;26.00;;;16.73;;
55483;SDS011;41345;51.704;5.146;2022-08-19T11:29:22;31.42;;;16.67;;
55483;SDS011;41345;51.704;5.146;2022-08-19T11:34:27;20.45;;;14.73;;
55483;SDS011;41345;51.704;5.146;2022-08-19T11:39:29;23.05;;;14.90;;
55483;SDS011;41345;51.704;5.146;2022-08-19T11:44:30;24.92;;;14.80;;
55483;SDS011;41345;51.704;5.146;2022-08-19T11:49:30;21.53;;;15.60;;
55483;SDS011;41345;51.704;5.146;2022-08-19T11:54:31;24.27;;;14.93;;
55483;SDS011;41345;51.704;5.146;2022-08-19T11:59:31;21.55;;;14.60;;
55483;SDS011;41345;51.704;5.146;2022-08-19T12:04:31;20.07;;;14.27;;
55483;SDS011;41345;51.704;5.146;2022-08-19T12:09:32;22.50;;;16.63;;
55483;SDS011;41345;51.704;5.146;2022-08-19T12:14:34;26.10;;;19.80;;
55483;SDS011;41345;51.704;5.146;2022-08-19T12:19:36;30.10;;;20.42;;
55483;SDS011;41345;51.704;5.146;2022-08-19T12:24:36;26.02;;;20.45;;
55483;SDS011;41345;51.704;5.146;2022-08-19T12:29:37;43.20;;;31.03;;
55483;SDS011;41345;51.704;5.146;2022-08-19T12:34:37;51.40;;;36.53;;
55483;SDS011;41345;51.704;5.146;2022-08-19T12:39:39;58.42;;;38.08;;
55483;SDS011;41345;51.704;5.146;2022-08-19T12:44:40;56.00;;;38.47;;
55483;SDS011;41345;51.704;5.146;2022-08-19T12:49:41;45.17;;;29.50;;
55483;SDS011;41345;51.704;5.146;2022-08-19T12:54:41;38.42;;;26.85;;
55483;SDS011;41345;51.704;5.146;2022-08-19T12:59:43;35.30;;;23.02;;
55483;SDS011;41345;51.704;5.146;2022-08-19T13:04:43;32.97;;;22.10;;
55483;SDS011;41345;51.704;5.146;2022-08-19T13:09:43;32.53;;;19.48;;
55483;SDS011;41345;51.704;5.146;2022-08-19T13:14:44;32.70;;;20.67;;
55483;SDS011;41345;51.704;5.146;2022-08-19T13:19:49;34.13;;;22.05;;
55483;SDS011;41345;51.704;5.146;2022-08-19T13:24:50;29.17;;;20.15;;
55483;SDS011;41345;51.704;5.146;2022-08-19T13:29:50;34.22;;;20.38;;
55483;SDS011;41345;51.704;5.146;2022-08-19T13:35:09;27.27;;;17.08;;
55483;SDS011;41345;51.704;5.146;2022-08-19T13:40:20;28.73;;;17.73;;
55483;SDS011;41345;51.704;5.146;2022-08-19T13:45:24;24.35;;;16.45;;
55483;SDS011;41345;51.704;5.146;2022-08-19T13:50:28;24.70;;;16.95;;
55483;SDS011;41345;51.704;5.146;2022-08-19T13:55:29;21.35;;;14.43;;
55483;SDS011;41345;51.704;5.146;2022-08-19T14:00:30;19.53;;;12.17;;
55483;SDS011;41345;51.704;5.146;2022-08-19T14:05:31;17.90;;;12.57;;
55483;SDS011;41345;51.704;5.146;2022-08-19T14:10:32;15.45;;;11.02;;
55483;SDS011;41345;51.704;5.146;2022-08-19T14:15:33;12.70;;;7.72;;
55483;SDS011;41345;51.704;5.146;2022-08-19T14:20:34;12.07;;;8.55;;
55483;SDS011;41345;51.704;5.146;2022-08-19T14:25:35;11.88;;;8.25;;
55483;SDS011;41345;51.704;5.146;2022-08-19T14:30:36;12.30;;;8.57;;
55483;SDS011;41345;51.704;5.146;2022-08-19T14:35:37;13.98;;;9.80;;
55483;SDS011;41345;51.704;5.146;2022-08-19T14:40:38;16.92;;;11.18;;
55483;SDS011;41345;51.704;5.146;2022-08-19T14:45:40;19.65;;;12.77;;
55483;SDS011;41345;51.704;5.146;2022-08-19T14:50:40;19.70;;;13.52;;
55483;SDS011;41345;51.704;5.146;2022-08-19T14:55:42;22.63;;;15.17;;
55483;SDS011;41345;51.704;5.146;2022-08-19T15:00:42;11.65;;;8.10;;
55483;SDS011;41345;51.704;5.146;2022-08-19T15:05:43;12.90;;;7.87;;
55483;SDS011;41345;51.704;5.146;2022-08-19T15:10:44;15.82;;;9.48;;
55483;SDS011;41345;51.704;5.146;2022-08-19T15:15:46;16.50;;;10.10;;
55483;SDS011;41345;51.704;5.146;2022-08-19T15:20:47;19.35;;;11.55;;
55483;SDS011;41345;51.704;5.146;2022-08-19T15:25:48;15.90;;;11.02;;
55483;SDS011;41345;51.704;5.146;2022-08-19T15:30:48;14.60;;;9.10;;
55483;SDS011;41345;51.704;5.146;2022-08-19T15:35:50;11.70;;;7.43;;
55483;SDS011;41345;51.704;5.146;2022-08-19T15:40:50;8.82;;;5.80;;
55483;SDS011;41345;51.704;5.146;2022-08-19T15:45:51;11.00;;;6.13;;
55483;SDS011;41345;51.704;5.146;2022-08-19T15:50:51;9.73;;;7.10;;
55483;SDS011;41345;51.704;5.146;2022-08-19T15:55:51;10.07;;;6.97;;
55483;SDS011;41345;51.704;5.146;2022-08-19T16:00:51;11.77;;;8.03;;
55483;SDS011;41345;51.704;5.146;2022-08-19T16:06:10;14.70;;;9.77;;
55483;SDS011;41345;51.704;5.146;2022-08-19T16:11:27;14.65;;;9.77;;
55483;SDS011;41345;51.704;5.146;2022-08-19T16:16:31;16.15;;;9.43;;
55483;SDS011;41345;51.704;5.146;2022-08-19T16:21:33;14.07;;;9.02;;
55483;SDS011;41345;51.704;5.146;2022-08-19T16:26:34;15.77;;;10.20;;
55483;SDS011;41345;51.704;5.146;2022-08-19T16:31:35;16.15;;;12.13;;
55483;SDS011;41345;51.704;5.146;2022-08-19T16:36:35;12.68;;;7.43;;
55483;SDS011;41345;51.704;5.146;2022-08-19T16:41:35;10.27;;;6.50;;
55483;SDS011;41345;51.704;5.146;2022-08-19T16:46:37;11.15;;;7.05;;
55483;SDS011;41345;51.704;5.146;2022-08-19T16:51:39;11.52;;;7.05;;
55483;SDS011;41345;51.704;5.146;2022-08-19T16:56:40;14.55;;;7.78;;
55483;SDS011;41345;51.704;5.146;2022-08-19T17:01:40;12.10;;;7.22;;
55483;SDS011;41345;51.704;5.146;2022-08-19T17:06:42;11.35;;;7.40;;
55483;SDS011;41345;51.704;5.146;2022-08-19T17:11:42;12.57;;;6.83;;
55483;SDS011;41345;51.704;5.146;2022-08-19T17:16:43;11.98;;;5.50;;
55483;SDS011;41345;51.704;5.146;2022-08-19T17:21:44;11.90;;;5.60;;
55483;SDS011;41345;51.704;5.146;2022-08-19T17:26:44;10.17;;;5.40;;
55483;SDS011;41345;51.704;5.146;2022-08-19T17:31:44;9.80;;;5.57;;
55483;SDS011;41345;51.704;5.146;2022-08-19T17:36:44;13.95;;;6.97;;
55483;SDS011;41345;51.704;5.146;2022-08-19T17:41:45;14.60;;;7.13;;
55483;SDS011;41345;51.704;5.146;2022-08-19T17:46:45;11.77;;;6.57;;
55483;SDS011;41345;51.704;5.146;2022-08-19T17:51:46;11.40;;;6.00;;
55483;SDS011;41345;51.704;5.146;2022-08-19T17:56:46;12.90;;;6.38;;
55483;SDS011;41345;51.704;5.146;2022-08-19T18:01:47;10.18;;;5.63;;
55483;SDS011;41345;51.704;5.146;2022-08-19T18:06:47;10.77;;;5.35;;
55483;SDS011;41345;51.704;5.146;2022-08-19T18:11:47;11.63;;;5.38;;
55483;SDS011;41345;51.704;5.146;2022-08-19T18:16:48;16.42;;;6.25;;
55483;SDS011;41345;51.704;5.146;2022-08-19T18:21:48;10.02;;;6.95;;
55483;SDS011;41345;51.704;5.146;2022-08-19T18:26:48;11.15;;;6.32;;
55483;SDS011;41345;51.704;5.146;2022-08-19T18:31:48;10.82;;;6.00;;
55483;SDS011;41345;51.704;5.146;2022-08-19T18:36:49;10.63;;;5.63;;
55483;SDS011;41345;51.704;5.146;2022-08-19T18:41:49;11.55;;;5.88;;
55483;SDS011;41345;51.704;5.146;2022-08-19T18:47:08;10.68;;;5.72;;
55483;SDS011;41345;51.704;5.146;2022-08-19T18:52:27;12.70;;;5.05;;
55483;SDS011;41345;51.704;5.146;2022-08-19T18:57:27;14.63;;;6.45;;
55483;SDS011;41345;51.704;5.146;2022-08-19T19:02:27;10.53;;;6.23;;
55483;SDS011;41345;51.704;5.146;2022-08-19T19:07:28;11.68;;;7.18;;
55483;SDS011;41345;51.704;5.146;2022-08-19T19:12:28;11.20;;;5.93;;
55483;SDS011;41345;51.704;5.146;2022-08-19T19:17:28;15.37;;;7.27;;
55483;SDS011;41345;51.704;5.146;2022-08-19T19:22:29;11.65;;;6.80;;
55483;SDS011;41345;51.704;5.146;2022-08-19T19:27:29;14.82;;;7.90;;
55483;SDS011;41345;51.704;5.146;2022-08-19T19:32:29;12.68;;;7.30;;
55483;SDS011;41345;51.704;5.146;2022-08-19T19:37:34;14.90;;;7.63;;
55483;SDS011;41345;51.704;5.146;2022-08-19T19:42:35;18.02;;;12.32;;
55483;SDS011;41345;51.704;5.146;2022-08-19T19:47:35;14.68;;;8.35;;
55483;SDS011;41345;51.704;5.146;2022-08-19T19:52:36;13.75;;;7.95;;
55483;SDS011;41345;51.704;5.146;2022-08-19T19:57:36;15.60;;;9.43;;
55483;SDS011;41345;51.704;5.146;2022-08-19T20:02:38;16.92;;;8.40;;
55483;SDS011;41345;51.704;5.146;2022-08-19T20:07:39;14.85;;;8.10;;
55483;SDS011;41345;51.704;5.146;2022-08-19T20:12:59;15.13;;;8.43;;
55483;SDS011;41345;51.704;5.146;2022-08-19T20:18:00;16.98;;;9.48;;
55483;SDS011;41345;51.704;5.146;2022-08-19T20:23:03;17.53;;;9.13;;
55483;SDS011;41345;51.704;5.146;2022-08-19T20:28:04;18.95;;;9.18;;
55483;SDS011;41345;51.704;5.146;2022-08-19T20:33:04;15.30;;;8.18;;
55483;SDS011;41345;51.704;5.146;2022-08-19T20:38:07;14.50;;;6.90;;
55483;SDS011;41345;51.704;5.146;2022-08-19T20:43:09;12.70;;;7.32;;
55483;SDS011;41345;51.704;5.146;2022-08-19T20:48:09;11.50;;;6.40;;
55483;SDS011;41345;51.704;5.146;2022-08-19T20:53:12;12.60;;;7.05;;
55483;SDS011;41345;51.704;5.146;2022-08-19T20:58:14;11.98;;;6.47;;
55483;SDS011;41345;51.704;5.146;2022-08-19T21:03:16;11.73;;;6.28;;
55483;SDS011;41345;51.704;5.146;2022-08-19T21:08:17;12.88;;;5.90;;
55483;SDS011;41345;51.704;5.146;2022-08-19T21:13:17;9.48;;;5.80;;
55483;SDS011;41345;51.704;5.146;2022-08-19T21:18:19;11.05;;;6.63;;
55483;SDS011;41345;51.704;5.146;2022-08-19T21:23:20;11.10;;;6.20;;
55483;SDS011;41345;51.704;5.146;2022-08-19T21:28:22;12.85;;;6.97;;
55483;SDS011;41345;51.704;5.146;2022-08-19T21:33:26;11.95;;;6.60;;
55483;SDS011;41345;51.704;5.146;2022-08-19T21:38:26;13.82;;;6.82;;
55483;SDS011;41345;51.704;5.146;2022-08-19T21:43:26;12.10;;;6.47;;
55483;SDS011;41345;51.704;5.146;2022-08-19T21:48:27;11.18;;;5.72;;
55483;SDS011;41345;51.704;5.146;2022-08-19T21:53:27;11.80;;;5.90;;
55483;SDS011;41345;51.704;5.146;2022-08-19T21:58:28;11.82;;;6.05;;
55483;SDS011;41345;51.704;5.146;2022-08-19T22:03:28;9.98;;;5.72;;
55483;SDS011;41345;51.704;5.146;2022-08-19T22:08:28;10.05;;;5.43;;
55483;SDS011;41345;51.704;5.146;2022-08-19T22:13:31;11.65;;;4.97;;
55483;SDS011;41345;51.704;5.146;2022-08-19T22:18:37;13.07;;;6.35;;
55483;SDS011;41345;51.704;5.146;2022-08-19T22:23:37;10.03;;;6.43;;
55483;SDS011;41345;51.704;5.146;2022-08-19T22:28:37;9.73;;;6.38;;
55483;SDS011;41345;51.704;5.146;2022-08-19T22:33:38;11.52;;;6.45;;
55483;SDS011;41345;51.704;5.146;2022-08-19T22:38:38;10.57;;;6.35;;
55483;SDS011;41345;51.704;5.146;2022-08-19T22:43:38;11.93;;;5.95;;
55483;SDS011;41345;51.704;5.146;2022-08-19T22:48:39;10.68;;;6.70;;
55483;SDS011;41345;51.704;5.146;2022-08-19T22:53:40;13.60;;;6.77;;
55483;SDS011;41345;51.704;5.146;2022-08-19T22:58:41;13.23;;;7.68;;
55483;SDS011;41345;51.704;5.146;2022-08-19T23:03:41;10.27;;;6.18;;
55483;SDS011;41345;51.704;5.146;2022-08-19T23:08:42;17.80;;;9.07;;
55483;SDS011;41345;51.704;5.146;2022-08-19T23:13:42;12.93;;;7.97;;
55483;SDS011;41345;51.704;5.146;2022-08-19T23:18:43;14.30;;;9.35;;
55483;SDS011;41345;51.704;5.146;2022-08-19T23:23:44;14.05;;;8.25;;
55483;SDS011;41345;51.704;5.146;2022-08-19T23:28:44;16.48;;;9.30;;
55483;SDS011;41345;51.704;5.146;2022-08-19T23:34:03;16.92;;;9.43;;
55483;SDS011;41345;51.704;5.146;2022-08-19T23:39:04;14.20;;;8.55;;
55483;SDS011;41345;51.704;5.146;2022-08-19T23:44:04;18.85;;;10.30;;
55483;SDS011;41345;51.704;5.146;2022-08-19T23:49:05;21.25;;;10.73;;
55483;SDS011;41345;51.704;5.146;2022-08-19T23:54:05;16.92;;;10.10;;
55483;SDS011;41345;51.704;5.146;2022-08-19T23:59:06;17.65;;;10.68;;
